Time;durP1;ratioP1;P1;durP2;ratioP2;P2;SDS_P1;SDS_P2;PMS_P1;PMS_P2;Temp;Humidity;BMP_temperature;BMP_pressure;BME280_temperature;BME280_humidity;BME280_pressure;Samples;Min_cycle;Max_cycle;Signal;HPM_P1;HPM_P2
2023/08/11 00:00:50;;;;;;;3.05;1.67;;;14.30;85.70;;;;;;5034905;28;20057;-78
2023/08/11 00:03:17;;;;;;;3.50;2.03;;;14.40;78.20;;;;;;5034187;28;20036;-77
2023/08/11 00:05:43;;;;;;;4.68;2.25;;;14.40;60.30;;;;;;5035089;28;20028;-79
2023/08/11 00:08:13;;;;;;;5.40;2.13;;;14.30;66.90;;;;;;5031027;28;20033;-78
2023/08/11 00:10:40;;;;;;;4.22;2.00;;;14.40;69.20;;;;;;5033257;28;20474;-79
2023/08/11 00:13:08;;;;;;;3.55;1.90;;;14.40;56.20;;;;;;5036297;28;20443;-78
2023/08/11 00:15:39;;;;;;;4.50;1.83;;;14.40;44.40;;;;;;5054594;28;20364;-79
2023/08/11 00:18:07;;;;;;;4.13;2.35;;;14.40;31.50;;;;;;5033910;28;20030;-77
2023/08/11 00:20:33;;;;;;;5.95;2.42;;;14.40;46.10;;;;;;5034769;28;20386;-79
2023/08/11 00:22:59;;;;;;;4.78;2.53;;;14.30;46.20;;;;;;5032913;28;20034;-78
2023/08/11 00:25:25;;;;;;;14.38;2.00;;;14.30;57.70;;;;;;5037489;28;20474;-77
2023/08/11 00:27:52;;;;;;;3.03;1.73;;;14.20;48.70;;;;;;5039132;28;20120;-78
2023/08/11 00:30:18;;;;;;;2.92;1.60;;;14.10;51.30;;;;;;5033513;28;20038;-79
2023/08/11 00:32:45;;;;;;;6.45;2.55;;;13.90;54.80;;;;;;5030688;28;20059;-78
2023/08/11 00:35:11;;;;;;;5.55;1.75;;;13.80;74.10;;;;;;5034733;28;20017;-78
2023/08/11 00:37:38;;;;;;;4.28;2.25;;;13.70;91.60;;;;;;5036548;28;20033;-78
2023/08/11 00:40:06;;;;;;;4.63;2.33;;;13.80;93.80;;;;;;5031506;28;20053;-78
2023/08/11 00:42:32;;;;;;;6.68;2.30;;;13.70;84.30;;;;;;5034605;28;20025;-84
2023/08/11 00:44:59;;;;;;;3.63;2.03;;;13.60;88.00;;;;;;5040827;28;20060;-79
2023/08/11 00:47:26;;;;;;;4.63;1.90;;;13.60;93.20;;;;;;5036586;28;20060;-79
2023/08/11 00:49:53;;;;;;;2.97;1.73;;;13.60;97.30;;;;;;5035064;28;20049;-76
2023/08/11 00:52:19;;;;;;;6.55;2.33;;;13.80;99.90;;;;;;5031771;28;20378;-78
2023/08/11 00:54:45;;;;;;;5.22;2.10;;;13.70;87.30;;;;;;5038909;28;20037;-77
2023/08/11 00:57:13;;;;;;;4.07;2.00;;;13.70;84.80;;;;;;5034144;28;20387;-78
2023/08/11 00:59:40;;;;;;;4.38;2.70;;;13.60;91.40;;;;;;5033770;28;20395;-79
2023/08/11 01:02:07;;;;;;;9.93;2.67;;;13.60;97.20;;;;;;5034422;28;20556;-79
2023/08/11 01:04:33;;;;;;;2.60;1.77;;;13.60;98.70;;;;;;5038889;28;20360;-83
2023/08/11 01:07:13;;;;;;;4.00;1.70;;;13.50;99.90;;;;;;5029657;28;20037;-77
2023/08/11 01:09:45;;;;;;;4.20;1.70;;;13.40;99.90;;;;;;5043135;28;20037;-79
2023/08/11 01:12:39;;;;;;;4.30;2.95;;;13.50;99.90;;;;;;5041888;28;20044;-78
2023/08/11 01:15:16;;;;;;;4.68;2.83;;;13.50;99.90;;;;;;5037039;28;20033;-78
2023/08/11 01:17:45;;;;;;;3.33;1.77;;;13.50;99.90;;;;;;5034382;28;20463;-78
2023/08/11 01:20:15;;;;;;;3.95;2.40;;;13.50;99.90;;;;;;5038268;28;20052;-79
2023/08/11 01:22:47;;;;;;;4.72;2.20;;;13.50;99.90;;;;;;5032790;28;20040;-78
2023/08/11 01:25:14;;;;;;;4.57;2.55;;;13.60;99.90;;;;;;5033235;28;20042;-77
2023/08/11 01:27:53;;;;;;;2.45;2.00;;;13.70;97.30;;;;;;5033762;28;20038;-77
2023/08/11 01:30:20;;;;;;;7.65;2.30;;;13.80;93.40;;;;;;5042087;28;20033;-79
2023/08/11 01:32:46;;;;;;;3.45;1.70;;;13.70;74.60;;;;;;5030125;28;20033;-78
2023/08/11 01:35:13;;;;;;;3.40;1.95;;;13.60;63.80;;;;;;5035364;28;20034;-78
2023/08/11 01:37:39;;;;;;;7.68;2.15;;;13.50;88.50;;;;;;5037566;28;20498;-79
2023/08/11 01:40:10;;;;;;;6.10;2.75;;;13.40;96.70;;;;;;5034346;28;20033;-77
2023/08/11 01:42:38;;;;;;;;;;;13.40;93.30;;;;;;5027430;28;20053;-80
2023/08/11 01:45:06;;;;;;;3.47;1.83;;;13.30;99.90;;;;;;5030323;28;19912;-77
2023/08/11 01:47:34;;;;;;;5.70;3.33;;;13.20;99.90;;;;;;5034233;28;20494;-83
2023/08/11 01:50:02;;;;;;;4.78;1.98;;;13.10;99.90;;;;;;5032713;28;20041;-77
2023/08/11 01:52:37;;;;;;;3.95;2.42;;;13.00;99.90;;;;;;5029329;28;20045;-78
2023/08/11 01:55:04;;;;;;;3.15;2.10;;;13.10;99.90;;;;;;5036558;28;20498;-77
2023/08/11 01:57:30;;;;;;;4.75;2.67;;;13.10;99.90;;;;;;5050887;28;20042;-77
2023/08/11 01:59:56;;;;;;;4.05;2.03;;;13.20;99.90;;;;;;5047775;28;20060;-78
2023/08/11 02:02:22;;;;;;;3.28;2.45;;;13.20;99.90;;;;;;5035130;28;20057;-79
2023/08/11 02:04:49;;;;;;;5.05;2.13;;;13.20;99.90;;;;;;5036370;28;20405;-79
2023/08/11 02:07:18;;;;;;;4.68;3.75;;;13.10;99.90;;;;;;5044404;28;20068;-80
2023/08/11 02:09:44;;;;;;;3.88;1.55;;;13.20;99.90;;;;;;5033348;28;20038;-78
2023/08/11 02:12:10;;;;;;;3.17;1.92;;;13.00;99.90;;;;;;5034824;28;20040;-78
2023/08/11 02:14:36;;;;;;;5.40;1.92;;;13.00;99.90;;;;;;5030858;28;20037;-85
2023/08/11 02:17:04;;;;;;;4.10;2.47;;;13.00;99.90;;;;;;5033797;28;20033;-81
2023/08/11 02:19:30;;;;;;;3.95;2.22;;;12.90;99.90;;;;;;5032317;28;20045;-79
2023/08/11 02:21:56;;;;;;;5.47;2.50;;;13.00;99.90;;;;;;5026474;28;20053;-82
2023/08/11 02:24:23;;;;;;;3.22;2.08;;;13.00;99.90;;;;;;5036508;28;20112;-80
2023/08/11 02:26:49;;;;;;;4.72;2.25;;;13.00;99.90;;;;;;5032454;28;20040;-77
2023/08/11 02:29:15;;;;;;;4.03;2.53;;;13.00;99.90;;;;;;5049434;28;20398;-79
2023/08/11 02:31:41;;;;;;;3.08;2.42;;;12.90;99.90;;;;;;5036700;28;20041;-84
2023/08/11 02:34:07;;;;;;;4.85;1.75;;;12.80;99.90;;;;;;5036845;28;20029;-78
2023/08/11 02:36:36;;;;;;;8.40;2.28;;;12.60;99.90;;;;;;5036717;28;20041;-78
2023/08/11 02:39:05;;;;;;;4.28;1.95;;;12.50;99.90;;;;;;5035188;28;20040;-78
2023/08/11 02:41:31;;;;;;;4.18;2.03;;;12.50;99.90;;;;;;5029395;28;20049;-78
2023/08/11 02:43:58;;;;;;;3.40;2.00;;;12.60;99.90;;;;;;5033747;28;20041;-78
2023/08/11 02:46:24;;;;;;;5.18;2.15;;;12.60;99.90;;;;;;5048011;28;20038;-81
2023/08/11 02:48:50;;;;;;;4.13;2.00;;;12.70;99.90;;;;;;5032706;28;20056;-78
2023/08/11 02:51:16;;;;;;;5.35;2.15;;;12.80;99.90;;;;;;5037431;28;20402;-79
2023/08/11 02:53:43;;;;;;;5.70;2.25;;;12.90;99.90;;;;;;5045518;28;20037;-79
2023/08/11 02:56:11;;;;;;;2.85;1.80;;;12.90;99.90;;;;;;5031172;28;20037;-79
2023/08/11 02:58:37;;;;;;;3.08;1.98;;;12.90;99.90;;;;;;5033667;28;20040;-85
2023/08/11 03:01:03;;;;;;;3.10;2.40;;;12.80;99.90;;;;;;5038032;28;20041;-78
2023/08/11 03:03:30;;;;;;;2.67;2.05;;;12.80;99.90;;;;;;5035588;28;20052;-78
2023/08/11 03:05:56;;;;;;;3.45;2.22;;;12.80;99.90;;;;;;5045098;28;20041;-77
2023/08/11 03:08:23;;;;;;;4.38;2.30;;;12.70;99.90;;;;;;5032892;28;20050;-77
2023/08/11 03:10:49;;;;;;;3.33;1.90;;;12.70;99.90;;;;;;5029686;28;20040;-77
2023/08/11 03:13:16;;;;;;;5.97;2.20;;;12.60;99.90;;;;;;5035053;28;20044;-77
2023/08/11 03:15:43;;;;;;;4.15;2.10;;;12.50;99.90;;;;;;5034664;28;20045;-77
2023/08/11 03:18:10;;;;;;;5.40;2.55;;;12.30;99.90;;;;;;5031676;28;20049;-78
2023/08/11 03:20:36;;;;;;;3.97;2.65;;;12.30;99.90;;;;;;5037051;28;20059;-83
2023/08/11 03:23:04;;;;;;;4.28;2.42;;;12.30;99.90;;;;;;5045634;28;20041;-78
2023/08/11 03:25:31;;;;;;;5.13;2.58;;;12.20;99.90;;;;;;5041382;28;20034;-77
2023/08/11 03:27:57;;;;;;;3.83;2.03;;;12.00;99.90;;;;;;5030234;28;20032;-79
2023/08/11 03:30:26;;;;;;;5.20;2.42;;;11.90;99.90;;;;;;5048407;28;20052;-79
2023/08/11 03:32:55;;;;;;;3.15;2.25;;;11.90;99.90;;;;;;5053494;28;20045;-76
2023/08/11 03:35:34;;;;;;;5.03;2.40;;;11.90;99.90;;;;;;5037971;28;20064;-77
2023/08/11 03:38:00;;;;;;;3.00;2.25;;;12.00;99.90;;;;;;5050942;28;20049;-78
2023/08/11 03:40:28;;;;;;;6.03;2.33;;;12.10;99.90;;;;;;5050868;28;20041;-78
2023/08/11 03:42:55;;;;;;;5.00;3.25;;;12.10;99.90;;;;;;5054781;28;20037;-77
2023/08/11 03:45:22;;;;;;;4.88;2.38;;;12.00;99.90;;;;;;5033608;28;20041;-78
2023/08/11 03:47:48;;;;;;;3.72;2.03;;;11.90;99.90;;;;;;5049609;28;20045;-79
2023/08/11 03:50:20;;;;;;;3.53;2.20;;;11.90;99.90;;;;;;5031134;28;20064;-78
2023/08/11 03:52:47;;;;;;;6.90;2.90;;;11.90;99.90;;;;;;5033352;28;20052;-77
2023/08/11 03:55:13;;;;;;;4.00;2.40;;;11.80;99.90;;;;;;5037355;28;20052;-77
2023/08/11 03:57:40;;;;;;;4.88;1.95;;;11.90;99.90;;;;;;5049154;28;20041;-85
2023/08/11 04:00:11;;;;;;;4.95;3.38;;;11.90;99.90;;;;;;5032368;28;20045;-79
2023/08/11 04:02:39;;;;;;;7.43;3.03;;;11.90;99.90;;;;;;5037867;28;20042;-83
2023/08/11 04:05:10;;;;;;;4.68;2.20;;;11.90;99.90;;;;;;5033003;28;20391;-78
2023/08/11 04:07:39;;;;;;;3.60;1.73;;;11.90;99.90;;;;;;5048855;28;20048;-78
2023/08/11 04:10:06;;;;;;;9.93;2.95;;;11.90;99.90;;;;;;5035241;28;20030;-78
2023/08/11 04:12:33;;;;;;;15.57;2.90;;;11.90;99.90;;;;;;5035912;28;20387;-78
2023/08/11 04:14:59;;;;;;;3.85;2.38;;;11.90;99.90;;;;;;5035610;28;20478;-78
2023/08/11 04:17:26;;;;;;;4.18;2.03;;;12.00;99.90;;;;;;5031053;28;20026;-78
2023/08/11 04:19:55;;;;;;;4.30;2.53;;;12.00;99.90;;;;;;5030672;28;20063;-79
2023/08/11 04:22:23;;;;;;;3.67;2.25;;;12.10;99.90;;;;;;5045876;28;20041;-79
2023/08/11 04:24:49;;;;;;;4.45;1.92;;;12.10;99.90;;;;;;5037152;28;20041;-79
2023/08/11 04:27:15;;;;;;;3.22;2.00;;;12.00;99.90;;;;;;5038856;28;20042;-78
2023/08/11 04:29:42;;;;;;;6.18;3.88;;;11.90;99.90;;;;;;5038816;28;20714;-84
2023/08/11 04:32:08;;;;;;;3.50;2.03;;;11.80;99.90;;;;;;5051125;28;20057;-77
2023/08/11 04:34:35;;;;;;;3.92;2.25;;;11.80;99.90;;;;;;5045531;28;20041;-77
2023/08/11 04:37:04;;;;;;;4.15;2.47;;;11.90;99.90;;;;;;5034395;28;20048;-78
2023/08/11 04:39:32;;;;;;;2.70;2.08;;;11.90;99.90;;;;;;5034733;28;20064;-78
2023/08/11 04:41:58;;;;;;;6.38;2.13;;;12.00;99.90;;;;;;5035216;28;20037;-80
2023/08/11 04:44:24;;;;;;;4.93;3.10;;;12.00;99.90;;;;;;5048823;28;20045;-78
2023/08/11 04:46:50;;;;;;;3.35;2.47;;;12.00;99.90;;;;;;5037996;28;20032;-77
2023/08/11 04:49:19;;;;;;;3.03;2.15;;;12.00;99.90;;;;;;5035268;28;20044;-78
2023/08/11 04:51:46;;;;;;;5.32;2.40;;;12.10;99.90;;;;;;5050835;28;20053;-77
2023/08/11 04:54:12;;;;;;;2.80;2.15;;;12.10;99.90;;;;;;5038616;28;20049;-77
2023/08/11 04:56:38;;;;;;;4.05;2.17;;;12.20;99.90;;;;;;5037493;28;20026;-83
2023/08/11 04:59:05;;;;;;;3.05;1.98;;;12.40;99.90;;;;;;5036223;28;20029;-78
2023/08/11 05:01:31;;;;;;;5.57;2.58;;;12.80;99.90;;;;;;5033359;28;20037;-80
2023/08/11 05:03:57;;;;;;;3.05;2.05;;;13.20;95.10;;;;;;5033917;28;20426;-79
2023/08/11 05:06:24;;;;;;;5.35;1.73;;;13.80;65.30;;;;;;5036433;28;20041;-78
2023/08/11 05:08:50;;;;;;;4.75;1.80;;;14.60;1.00;;;;;;5038497;28;20049;-78
2023/08/11 05:11:16;;;;;;;3.80;1.38;;;14.80;1.00;;;;;;5037224;28;20044;-80
2023/08/11 05:13:43;;;;;;;3.15;1.38;;;14.90;1.00;;;;;;5033178;28;20021;-86
2023/08/11 05:16:09;;;;;;;3.40;1.50;;;15.20;1.00;;;;;;5035058;28;20466;-78
2023/08/11 05:18:35;;;;;;;3.08;1.80;;;15.50;99.90;;;;;;5033320;28;20049;-78
2023/08/11 05:21:03;;;;;;;3.08;1.52;;;15.90;99.90;;;;;;5038258;28;20041;-78
2023/08/11 05:23:29;;;;;;;2.35;1.60;;;16.00;99.90;;;;;;5032280;28;20390;-78
2023/08/11 05:25:58;;;;;;;3.08;1.70;;;16.00;99.90;;;;;;5033914;28;20045;-80
2023/08/11 05:28:24;;;;;;;7.93;2.00;;;16.30;99.90;;;;;;5033387;28;20108;-79
2023/08/11 05:30:50;;;;;;;4.28;1.83;;;16.90;99.90;;;;;;5033375;28;20097;-78
2023/08/11 05:33:16;;;;;;;5.45;2.08;;;17.20;99.90;;;;;;5034136;28;20459;-81
2023/08/11 05:35:42;;;;;;;3.97;2.00;;;17.40;99.90;;;;;;5034378;28;20485;-85
2023/08/11 05:38:08;;;;;;;3.10;2.35;;;17.10;99.90;;;;;;5032081;28;20029;-78
2023/08/11 05:40:34;;;;;;;5.07;2.22;;;16.90;99.90;;;;;;5031092;28;20045;-77
2023/08/11 05:43:01;;;;;;;2.83;1.70;;;16.70;99.90;;;;;;5024396;28;20060;-78
2023/08/11 05:45:27;;;;;;;3.85;1.73;;;16.70;99.90;;;;;;5029605;28;20040;-78
2023/08/11 05:47:53;;;;;;;7.18;2.17;;;17.00;99.90;;;;;;5033618;28;20401;-79
2023/08/11 05:50:19;;;;;;;3.83;1.55;;;17.30;99.90;;;;;;5033484;28;20033;-78
2023/08/11 05:52:46;;;;;;;3.20;2.38;;;18.00;99.90;;;;;;5033582;28;20033;-78
2023/08/11 05:55:12;;;;;;;4.40;2.38;;;18.90;99.90;;;;;;5033378;28;20096;-77
2023/08/11 05:57:38;;;;;;;3.53;1.90;;;18.80;91.90;;;;;;5033525;28;20049;-77
2023/08/11 06:00:05;;;;;;;2.50;1.73;;;18.20;99.90;;;;;;5032984;28;20037;-78
2023/08/11 06:02:39;;;;;;;5.45;2.42;;;18.00;99.90;;;;;;5045083;28;20108;-77
2023/08/11 06:05:05;;;;;;;2.28;1.40;;;18.10;99.90;;;;;;5028660;28;20570;-76
2023/08/11 06:07:31;;;;;;;5.45;1.88;;;18.60;99.90;;;;;;5027753;28;20025;-78
2023/08/11 06:09:57;;;;;;;4.90;2.50;;;18.80;99.90;;;;;;5047814;28;20040;-78
2023/08/11 06:12:24;;;;;;;4.50;2.53;;;18.70;99.90;;;;;;5024234;28;20037;-77
2023/08/11 06:14:50;;;;;;;4.20;2.60;;;18.60;99.90;;;;;;5032399;28;20045;-80
2023/08/11 06:17:16;;;;;;;4.65;2.42;;;18.70;99.90;;;;;;5035303;28;20033;-82
2023/08/11 06:19:42;;;;;;;4.88;2.53;;;18.90;99.90;;;;;;5055112;28;20045;-85
2023/08/11 06:22:09;;;;;;;7.93;3.08;;;19.00;98.90;;;;;;5034280;28;20052;-80
2023/08/11 06:24:35;;;;;;;5.20;2.10;;;19.00;90.70;;;;;;5031110;28;20042;-80
2023/08/11 06:27:01;;;;;;;5.00;1.92;;;19.10;86.70;;;;;;5034184;28;20034;-81
2023/08/11 06:29:27;;;;;;;3.78;1.98;;;19.40;96.90;;;;;;5034942;28;20430;-81
2023/08/11 06:31:53;;;;;;;3.10;1.70;;;19.40;60.90;;;;;;5034457;28;20045;-82
2023/08/11 06:34:20;;;;;;;4.95;2.38;;;19.20;82.90;;;;;;5035908;28;20037;-81
2023/08/11 06:36:46;;;;;;;6.63;2.47;;;19.50;52.30;;;;;;5035113;28;20030;-85
2023/08/11 06:39:13;;;;;;;4.40;2.00;;;19.80;97.40;;;;;;5030522;28;20485;-81
2023/08/11 06:41:39;;;;;;;5.88;2.72;;;19.80;33.30;;;;;;5032059;28;20034;-79
2023/08/11 06:44:07;;;;;;;5.13;2.15;;;20.00;7.80;;;;;;5031980;28;20025;-80
2023/08/11 06:46:34;;;;;;;4.20;2.20;;;20.30;1.00;;;;;;5032507;28;20386;-77
2023/08/11 06:49:01;;;;;;;3.50;1.80;;;20.00;21.60;;;;;;5036968;28;20036;-77
2023/08/11 06:51:27;;;;;;;3.50;2.25;;;19.70;32.60;;;;;;5036002;28;20395;-80
2023/08/11 06:53:53;;;;;;;4.35;2.20;;;19.90;48.70;;;;;;5032633;28;20033;-80
2023/08/11 06:56:19;;;;;;;5.18;2.40;;;20.10;66.20;;;;;;5037621;28;20053;-80
2023/08/11 06:58:45;;;;;;;3.85;2.00;;;20.60;1.00;;;;;;5031558;28;20037;-85
2023/08/11 07:01:12;;;;;;;9.05;3.17;;;20.40;1.00;;;;;;5036698;28;20050;-79
2023/08/11 07:03:38;;;;;;;3.17;2.05;;;20.50;40.30;;;;;;5030931;28;20049;-79
2023/08/11 07:06:04;;;;;;;4.88;2.08;;;20.60;1.00;;;;;;5030041;28;20029;-83
2023/08/11 07:08:30;;;;;;;3.53;1.95;;;20.90;1.00;;;;;;5031336;28;20037;-80
2023/08/11 07:10:57;;;;;;;5.13;2.80;;;21.00;1.00;;;;;;5038147;28;20032;-80
2023/08/11 07:13:23;;;;;;;6.20;2.63;;;20.90;4.00;;;;;;5034865;28;20029;-80
2023/08/11 07:15:49;;;;;;;4.53;2.85;;;21.10;1.00;;;;;;5038308;28;20033;-80
2023/08/11 07:18:15;;;;;;;6.00;2.85;;;21.20;1.00;;;;;;5036527;28;20041;-80
2023/08/11 07:20:42;;;;;;;5.97;2.90;;;21.60;1.00;;;;;;5037972;28;20044;-80
2023/08/11 07:23:08;;;;;;;4.63;2.45;;;21.50;1.00;;;;;;5033336;28;20580;-80
2023/08/11 07:25:35;;;;;;;6.07;3.15;;;21.70;1.00;;;;;;5036487;28;20483;-80
2023/08/11 07:28:01;;;;;;;4.55;2.75;;;21.50;1.00;;;;;;5035467;28;20045;-80
2023/08/11 07:30:30;;;;;;;5.72;3.28;;;21.20;1.00;;;;;;5040817;28;20203;-81
2023/08/11 07:32:57;;;;;;;7.93;4.38;;;20.90;1.00;;;;;;5035837;28;20044;-80
2023/08/11 07:35:24;;;;;;;5.70;3.35;;;20.90;1.00;;;;;;5036054;28;20465;-80
2023/08/11 07:37:50;;;;;;;7.80;3.33;;;21.00;1.00;;;;;;5034052;28;20036;-86
2023/08/11 07:40:16;;;;;;;5.55;3.58;;;21.50;1.00;;;;;;5035481;28;20045;-81
2023/08/11 07:42:42;;;;;;;7.93;3.58;;;22.10;1.00;;;;;;5033544;28;20040;-80
2023/08/11 07:45:09;;;;;;;6.30;4.15;;;22.50;1.00;;;;;;5036957;28;20033;-79
2023/08/11 07:47:36;;;;;;;6.00;3.55;;;21.90;1.00;;;;;;5038440;28;20033;-80
2023/08/11 07:50:02;;;;;;;7.47;4.70;;;22.20;1.00;;;;;;5034344;28;20036;-79
2023/08/11 07:52:29;;;;;;;8.70;4.82;;;22.10;1.00;;;;;;5038456;28;20048;-79
2023/08/11 07:54:55;;;;;;;8.48;4.65;;;21.80;1.00;;;;;;5036156;28;20121;-79
2023/08/11 07:57:22;;;;;;;7.45;4.57;;;22.10;1.00;;;;;;5039445;28;20487;-79
2023/08/11 07:59:48;;;;;;;9.35;5.15;;;22.40;1.00;;;;;;5043414;28;20089;-83
2023/08/11 08:02:15;;;;;;;7.25;4.50;;;23.00;1.00;;;;;;5036436;28;20041;-80
2023/08/11 08:04:42;;;;;;;7.93;3.55;;;23.60;1.00;;;;;;5032742;28;20044;-80
2023/08/11 08:07:10;;;;;;;8.82;4.47;;;24.20;99.90;;;;;;5034758;28;20033;-79
2023/08/11 08:09:38;;;;;;;7.20;4.10;;;24.30;99.90;;;;;;5036197;28;20052;-79
2023/08/11 08:12:05;;;;;;;6.13;4.13;;;24.50;99.90;;;;;;5036096;28;20033;-80
2023/08/11 08:14:31;;;;;;;5.50;3.85;;;24.00;99.90;;;;;;5031742;28;20029;-80
2023/08/11 08:17:01;;;;;;;7.40;4.35;;;23.40;99.90;;;;;;5033727;28;20037;-80
2023/08/11 08:19:29;;;;;;;6.10;4.28;;;23.10;99.90;;;;;;5036236;28;20032;-80
2023/08/11 08:21:55;;;;;;;7.00;3.45;;;23.00;1.00;;;;;;5035402;28;20033;-80
2023/08/11 08:24:22;;;;;;;5.63;3.78;;;23.50;99.90;;;;;;5040194;28;20045;-78
2023/08/11 08:26:48;;;;;;;8.80;4.55;;;23.90;99.90;;;;;;5040950;28;20044;-79
2023/08/11 08:29:14;;;;;;;4.88;3.70;;;24.20;99.90;;;;;;5037745;28;20463;-79
2023/08/11 08:31:43;;;;;;;4.18;3.13;;;23.90;99.90;;;;;;5039455;28;20041;-78
2023/08/11 08:34:09;;;;;;;7.05;3.80;;;24.00;99.90;;;;;;5035024;28;20037;-78
2023/08/11 08:36:35;;;;;;;6.95;3.03;;;24.20;99.90;;;;;;5036669;28;20034;-79
2023/08/11 08:39:01;;;;;;;5.00;2.97;;;24.10;99.90;;;;;;5040940;28;20042;-78
2023/08/11 08:41:30;;;;;;;6.97;3.83;;;24.60;99.90;;;;;;5041250;28;20037;-79
2023/08/11 08:43:58;;;;;;;5.53;3.13;;;24.90;99.90;;;;;;5037429;28;20037;-80
2023/08/11 08:46:30;;;;;;;4.55;3.65;;;25.50;99.90;;;;;;5034791;28;20029;-81
2023/08/11 08:49:06;;;;;;;10.10;3.28;;;25.60;99.90;;;;;;5036761;28;20036;-79
2023/08/11 08:51:35;;;;;;;7.43;2.97;;;25.40;99.90;;;;;;5038006;28;20113;-80
2023/08/11 08:54:01;;;;;;;6.65;3.83;;;25.60;99.90;;;;;;5036160;28;20033;-82
2023/08/11 08:56:27;;;;;;;4.63;2.80;;;25.50;99.90;;;;;;5039488;28;20498;-80
2023/08/11 08:58:53;;;;;;;4.28;2.67;;;25.70;99.90;;;;;;5053303;28;20036;-83
2023/08/11 09:01:20;;;;;;;5.90;3.40;;;25.70;99.90;;;;;;5037759;28;20041;-81
2023/08/11 09:03:46;;;;;;;4.30;2.55;;;26.10;99.90;;;;;;5039932;28;20064;-80
2023/08/11 09:06:13;;;;;;;3.70;2.40;;;26.30;99.90;;;;;;5035170;28;20033;-79
2023/08/11 09:08:39;;;;;;;3.55;2.78;;;26.70;99.90;;;;;;5037739;28;20034;-80
2023/08/11 09:11:07;;;;;;;7.25;2.92;;;26.50;99.90;;;;;;5039312;28;20120;-79
2023/08/11 09:13:33;;;;;;;4.28;2.25;;;25.80;99.90;;;;;;5039340;28;20052;-80
2023/08/11 09:16:00;;;;;;;5.63;2.45;;;25.70;99.90;;;;;;5031758;28;20037;-81
2023/08/11 09:18:27;;;;;;;6.78;3.03;;;25.50;99.90;;;;;;5035257;28;20451;-82
2023/08/11 09:20:53;;;;;;;3.55;2.08;;;25.40;99.90;;;;;;5036613;28;20044;-81
2023/08/11 09:23:19;;;;;;;6.70;2.42;;;25.80;99.90;;;;;;5035311;28;20041;-80
2023/08/11 09:25:46;;;;;;;5.10;2.25;;;25.80;99.90;;;;;;5036084;28;20422;-80
2023/08/11 09:28:12;;;;;;;5.72;2.45;;;26.20;99.90;;;;;;5035157;28;20033;-80
2023/08/11 09:30:42;;;;;;;3.63;1.95;;;26.50;99.90;;;;;;5035719;28;20029;-79
2023/08/11 09:33:11;;;;;;;8.32;2.00;;;27.00;99.90;;;;;;5036782;28;20056;-78
2023/08/11 09:35:37;;;;;;;4.55;1.85;;;26.60;99.90;;;;;;5040193;28;20037;-79
2023/08/11 09:38:04;;;;;;;3.38;2.10;;;26.90;99.90;;;;;;5034800;28;20391;-79
2023/08/11 09:40:31;;;;;;;4.13;2.38;;;27.20;99.90;;;;;;5032951;28;20037;-78
2023/08/11 09:42:57;;;;;;;4.00;2.72;;;26.90;99.90;;;;;;5034338;28;20033;-79
2023/08/11 09:45:24;;;;;;;4.75;2.50;;;26.70;99.90;;;;;;5035939;28;20033;-80
2023/08/11 09:47:50;;;;;;;4.35;2.05;;;26.80;99.90;;;;;;5035881;28;20038;-78
2023/08/11 09:50:17;;;;;;;3.97;2.38;;;27.00;99.90;;;;;;5039694;28;20036;-79
2023/08/11 09:52:44;;;;;;;5.60;2.63;;;27.20;99.90;;;;;;5043626;28;20044;-79
2023/08/11 09:55:12;;;;;;;4.30;2.65;;;27.30;99.90;;;;;;5035854;28;20037;-79
2023/08/11 09:57:40;;;;;;;3.83;2.03;;;26.80;99.90;;;;;;5032834;28;20033;-80
2023/08/11 10:00:13;;;;;;;3.47;1.55;;;26.80;99.90;;;;;;5033446;28;20435;-79
2023/08/11 10:02:51;;;;;;;4.07;2.28;;;27.00;99.90;;;;;;5036800;28;20049;-79
2023/08/11 10:05:19;;;;;;;4.70;2.60;;;27.00;99.90;;;;;;5036288;28;20033;-80
2023/08/11 10:07:49;;;;;;;3.97;2.28;;;26.70;99.90;;;;;;5033977;28;20038;-80
2023/08/11 10:10:17;;;;;;;5.47;2.20;;;27.20;99.90;;;;;;5035517;28;20029;-79
2023/08/11 10:13:04;;;;;;;4.33;2.47;;;27.60;99.90;;;;;;5034898;28;20057;-81
2023/08/11 10:15:32;;;;;;;8.10;3.30;;;27.40;99.90;;;;;;5037924;28;20462;-77
2023/08/11 10:18:00;;;;;;;4.43;1.73;;;26.80;99.90;;;;;;5034866;28;20379;-78
2023/08/11 10:20:26;;;;;;;3.58;2.20;;;27.00;99.90;;;;;;5034386;28;20387;-79
2023/08/11 10:22:53;;;;;;;5.30;1.67;;;27.40;99.90;;;;;;5034852;28;20056;-80
2023/08/11 10:25:19;;;;;;;5.82;3.40;;;27.60;99.90;;;;;;5030001;28;20372;-82
2023/08/11 10:27:46;;;;;;;3.58;1.73;;;27.80;99.90;;;;;;5036891;28;20033;-78
2023/08/11 10:30:14;;;;;;;4.90;2.38;;;27.70;99.90;;;;;;5036441;28;20036;-78
2023/08/11 10:32:41;;;;;;;3.55;1.88;;;27.60;99.90;;;;;;5036227;28;20037;-81
2023/08/11 10:35:24;;;;;;;3.00;1.73;;;27.40;99.90;;;;;;5036892;28;20033;-79
2023/08/11 10:37:58;;;;;;;3.60;1.95;;;27.40;99.90;;;;;;5036724;28;20045;-80
2023/08/11 10:40:32;;;;;;;3.03;1.92;;;27.50;99.90;;;;;;5031885;28;20382;-81
2023/08/11 10:42:59;;;;;;;3.13;1.73;;;27.60;99.90;;;;;;5033093;28;20489;-82
2023/08/11 10:45:26;;;;;;;4.00;1.88;;;27.90;99.90;;;;;;5031720;28;20034;-80
2023/08/11 10:47:53;;;;;;;2.45;1.77;;;27.60;99.90;;;;;;5034254;28;20025;-79
2023/08/11 10:50:21;;;;;;;3.65;2.15;;;27.80;99.90;;;;;;5035088;28;20041;-81
2023/08/11 10:52:55;;;;;;;2.80;2.10;;;28.10;99.90;;;;;;5038710;28;20053;-79
2023/08/11 10:55:21;;;;;;;4.18;1.98;;;28.10;99.90;;;;;;5037581;28;20029;-81
2023/08/11 10:58:10;;;;;;;3.33;1.65;;;28.00;99.90;;;;;;5034926;28;20033;-80
2023/08/11 11:00:36;;;;;;;3.78;2.10;;;28.10;99.90;;;;;;5031383;28;20722;-81
2023/08/11 11:03:02;;;;;;;3.17;1.70;;;28.00;99.90;;;;;;5041186;28;20013;-81
2023/08/11 11:05:28;;;;;;;4.72;2.05;;;27.90;99.90;;;;;;5031854;28;20463;-80
2023/08/11 11:07:55;;;;;;;3.03;1.65;;;28.00;99.90;;;;;;5041677;28;20026;-79
2023/08/11 11:10:21;;;;;;;3.78;1.75;;;28.10;99.90;;;;;;5033754;28;20467;-82
2023/08/11 11:12:47;;;;;;;6.40;2.33;;;28.30;99.90;;;;;;5037517;28;20398;-79
2023/08/11 11:15:13;;;;;;;4.25;1.73;;;28.50;99.90;;;;;;5044648;28;20042;-87
2023/08/11 11:17:39;;;;;;;2.20;1.70;;;28.50;99.90;;;;;;5023561;28;20033;-80
2023/08/11 11:20:07;;;;;;;3.28;1.80;;;28.40;99.90;;;;;;5054303;28;20037;-84
2023/08/11 11:22:35;;;;;;;2.83;1.60;;;28.60;99.90;;;;;;5032872;28;20033;-82
2023/08/11 11:25:02;;;;;;;2.95;1.70;;;28.70;99.90;;;;;;5051934;28;20478;-88
2023/08/11 11:27:29;;;;;;;2.67;1.52;;;28.50;99.90;;;;;;5021000;28;20025;-83
2023/08/11 11:29:59;;;;;;;3.25;1.88;;;28.30;99.90;;;;;;5021569;28;20045;-80
2023/08/11 11:32:26;;;;;;;7.18;2.00;;;28.30;99.90;;;;;;5030256;28;20053;-78
2023/08/11 11:34:54;;;;;;;3.90;2.25;;;28.60;99.90;;;;;;5031878;28;20030;-79
2023/08/11 11:37:20;;;;;;;2.90;1.92;;;28.80;99.90;;;;;;5014310;28;20052;-80
2023/08/11 11:39:46;;;;;;;3.95;1.60;;;28.80;99.90;;;;;;5031330;28;20030;-80
2023/08/11 11:42:12;;;;;;;3.33;1.92;;;28.70;99.90;;;;;;5034530;28;20056;-80
2023/08/11 11:44:39;;;;;;;4.38;1.95;;;28.60;99.90;;;;;;5053952;28;20049;-80
2023/08/11 11:47:05;;;;;;;4.75;1.80;;;28.80;99.90;;;;;;5035100;28;20080;-81
2023/08/11 11:49:32;;;;;;;5.50;1.60;;;28.70;99.90;;;;;;5032809;28;20062;-79
2023/08/11 11:52:01;;;;;;;2.10;1.70;;;28.50;99.90;;;;;;5029397;28;20398;-86
2023/08/11 11:54:28;;;;;;;4.60;1.60;;;28.40;99.90;;;;;;5035245;28;20041;-80
2023/08/11 11:56:55;;;;;;;1.88;1.20;;;28.60;99.90;;;;;;5041182;28;20033;-78
2023/08/11 11:59:21;;;;;;;2.30;1.23;;;28.80;99.90;;;;;;5053044;28;20049;-81
2023/08/11 12:01:50;;;;;;;2.50;1.35;;;28.80;99.90;;;;;;5037793;28;20037;-82
2023/08/11 12:04:16;;;;;;;2.77;1.73;;;28.70;99.90;;;;;;5039995;28;20029;-80
2023/08/11 12:06:42;;;;;;;3.42;1.30;;;28.60;99.90;;;;;;5038715;28;20037;-82
2023/08/11 12:09:09;;;;;;;5.85;1.77;;;28.60;99.90;;;;;;5036065;28;20041;-83
2023/08/11 12:11:37;;;;;;;2.85;1.77;;;28.50;99.90;;;;;;5039002;28;20048;-81
2023/08/11 12:14:05;;;;;;;3.38;1.65;;;28.40;99.90;;;;;;5039030;28;20037;-77
2023/08/11 12:16:32;;;;;;;3.67;1.88;;;28.60;99.90;;;;;;5037694;28;20033;-83
2023/08/11 12:19:02;;;;;;;2.90;1.63;;;29.00;99.90;;;;;;5036013;28;20030;-77
2023/08/11 12:21:28;;;;;;;2.63;1.48;;;29.20;99.90;;;;;;5037251;28;20493;-80
2023/08/11 12:23:55;;;;;;;3.45;1.58;;;29.40;99.90;;;;;;5035927;28;20060;-76
2023/08/11 12:26:21;;;;;;;2.50;1.63;;;29.70;99.90;;;;;;5037400;28;20033;-79
2023/08/11 12:28:48;;;;;;;3.03;1.83;;;29.30;99.90;;;;;;5038418;28;20462;-80
2023/08/11 12:31:14;;;;;;;3.42;1.55;;;29.30;99.90;;;;;;5038327;28;20041;-80
2023/08/11 12:33:40;;;;;;;3.95;1.98;;;29.50;99.90;;;;;;5035071;28;20120;-83
2023/08/11 12:36:08;;;;;;;4.40;2.03;;;29.20;99.90;;;;;;5034933;28;20040;-84
2023/08/11 12:38:35;;;;;;;3.78;1.83;;;29.50;99.90;;;;;;5038237;28;20030;-82
2023/08/11 12:41:01;;;;;;;3.60;1.77;;;29.60;99.90;;;;;;5038644;28;20037;-84
2023/08/11 12:43:27;;;;;;;3.13;1.55;;;29.60;99.90;;;;;;5038590;28;20040;-80
2023/08/11 12:45:53;;;;;;;4.68;1.58;;;29.80;99.90;;;;;;5039598;28;20048;-80
2023/08/11 12:48:19;;;;;;;2.53;1.40;;;29.90;99.90;;;;;;5033878;28;20265;-81